createdAt,value
2018-08-06T00:00:25.712Z,1.00
2018-08-06T00:02:53.354Z,1.00
2018-08-06T00:05:21.007Z,0.90
2018-08-06T00:07:48.852Z,0.87
2018-08-06T00:10:18.820Z,0.80
2018-08-06T00:12:46.397Z,1.00
2018-08-06T00:15:14.682Z,0.70
2018-08-06T00:17:42.382Z,0.83
2018-08-06T00:20:11.370Z,1.00
2018-08-06T00:22:39.402Z,1.30
2018-08-06T00:25:08.275Z,1.00
2018-08-06T00:27:35.912Z,1.13
2018-08-06T00:30:04.901Z,1.10
2018-08-06T00:32:32.495Z,1.10
2018-08-06T00:35:00.059Z,1.00
2018-08-06T00:37:27.638Z,1.00
2018-08-06T00:39:55.249Z,1.00
2018-08-06T00:42:22.839Z,1.00
2018-08-06T00:44:50.511Z,1.00
2018-08-06T00:47:18.066Z,1.00
2018-08-06T00:49:45.637Z,1.23
2018-08-06T00:52:13.159Z,1.10
2018-08-06T00:54:40.795Z,1.10
2018-08-06T00:57:08.374Z,0.90
2018-08-06T00:59:35.958Z,1.10
2018-08-06T01:02:03.617Z,0.83
2018-08-06T01:04:31.174Z,0.93
2018-08-06T01:06:58.770Z,0.87
2018-08-06T01:09:26.358Z,0.97
2018-08-06T01:11:53.941Z,0.80
2018-08-06T01:14:21.664Z,0.80
2018-08-06T01:16:49.296Z,1.00
2018-08-06T01:19:16.920Z,0.90
2018-08-06T01:21:44.519Z,1.00
2018-08-06T01:24:18.886Z,0.80
2018-08-06T01:26:46.535Z,0.97
2018-08-06T01:29:14.140Z,1.20
2018-08-06T01:31:41.715Z,1.00
2018-08-06T01:34:09.198Z,1.20
2018-08-06T01:36:37.015Z,0.90
2018-08-06T01:39:07.807Z,0.83
2018-08-06T01:41:35.451Z,0.73
2018-08-06T01:44:03.606Z,1.07
2018-08-06T01:46:31.235Z,1.03
2018-08-06T01:48:58.819Z,1.17
2018-08-06T01:51:26.427Z,1.03
2018-08-06T01:53:54.031Z,0.90
2018-08-06T01:56:21.639Z,1.00
2018-08-06T01:58:49.201Z,1.20
2018-08-06T02:01:16.895Z,0.90
2018-08-06T02:03:44.470Z,0.87
2018-08-06T02:06:12.040Z,0.97
2018-08-06T02:08:39.644Z,0.90
2018-08-06T02:11:07.261Z,1.30
2018-08-06T02:13:34.831Z,0.87
2018-08-06T02:16:02.494Z,0.97
2018-08-06T02:18:30.076Z,0.80
2018-08-06T02:20:57.695Z,1.00
2018-08-06T02:23:25.324Z,0.90
2018-08-06T02:25:52.953Z,1.20
2018-08-06T02:28:20.535Z,1.30
2018-08-06T02:30:48.045Z,1.00
2018-08-06T02:33:15.668Z,0.90
2018-08-06T02:35:43.283Z,1.00
2018-08-06T02:38:10.944Z,0.73
2018-08-06T02:40:38.571Z,1.10
2018-08-06T02:43:06.267Z,1.10
2018-08-06T02:45:33.929Z,1.17
2018-08-06T02:48:01.555Z,1.23
2018-08-06T02:50:29.201Z,1.27
2018-08-06T02:52:56.896Z,1.20
2018-08-06T02:55:24.497Z,1.07
2018-08-06T02:57:52.164Z,1.33
2018-08-06T03:00:19.813Z,1.33
2018-08-06T03:02:47.718Z,1.27
2018-08-06T03:05:16.689Z,1.20
2018-08-06T03:07:44.815Z,0.90
2018-08-06T03:10:12.891Z,1.20
2018-08-06T03:12:41.012Z,1.10
2018-08-06T03:15:10.259Z,1.20
2018-08-06T03:17:38.523Z,1.50
2018-08-06T03:20:06.689Z,0.90
2018-08-06T03:22:34.388Z,1.10
2018-08-06T03:25:02.107Z,1.00
2018-08-06T03:27:29.717Z,1.30
2018-08-06T03:29:57.324Z,1.20
2018-08-06T03:32:24.919Z,1.37
2018-08-06T03:34:52.515Z,1.27
2018-08-06T03:37:20.199Z,1.30
2018-08-06T03:39:47.835Z,1.40
2018-08-06T03:42:15.347Z,1.47
2018-08-06T03:44:42.971Z,1.37
2018-08-06T03:47:10.691Z,1.70
2018-08-06T03:49:38.267Z,1.30
2018-08-06T03:52:06.127Z,1.20
2018-08-06T03:54:33.697Z,1.50
2018-08-06T03:57:01.291Z,1.10
2018-08-06T03:59:28.883Z,1.50
2018-08-06T04:01:56.439Z,1.40
2018-08-06T04:04:23.991Z,1.50
2018-08-06T04:06:51.585Z,1.00
2018-08-06T04:09:19.161Z,1.57
2018-08-06T04:11:46.739Z,1.37
2018-08-06T04:14:14.312Z,1.50
2018-08-06T04:16:42.894Z,1.40
2018-08-06T04:19:11.629Z,1.60
2018-08-06T04:21:39.560Z,1.33
2018-08-06T04:24:07.714Z,1.70
2018-08-06T04:26:35.868Z,1.30
2018-08-06T04:29:03.885Z,1.37
2018-08-06T04:31:31.438Z,1.47
2018-08-06T04:33:59.388Z,1.37
2018-08-06T04:36:26.916Z,2.03
2018-08-06T04:38:54.523Z,1.70
2018-08-06T04:41:22.042Z,1.97
2018-08-06T04:43:49.652Z,2.07
2018-08-06T04:46:17.274Z,1.57
2018-08-06T04:48:44.874Z,2.00
2018-08-06T04:51:12.489Z,1.77
2018-08-06T04:53:40.043Z,1.87
2018-08-06T04:56:07.655Z,1.67
2018-08-06T04:58:35.258Z,2.00
2018-08-06T05:01:02.919Z,1.70
2018-08-06T05:03:30.508Z,1.50
2018-08-06T05:05:58.085Z,1.60
2018-08-06T05:08:25.668Z,1.70
2018-08-06T05:10:53.232Z,1.97
2018-08-06T05:13:20.838Z,2.77
2018-08-06T05:15:48.436Z,2.07
2018-08-06T05:18:16.024Z,1.97
2018-08-06T05:20:43.635Z,1.90
2018-08-06T05:23:11.231Z,1.87
2018-08-06T05:25:38.794Z,1.97
2018-08-06T05:28:06.542Z,2.20
2018-08-06T05:30:34.170Z,2.40
2018-08-06T05:33:02.080Z,2.10
2018-08-06T05:35:29.930Z,2.00
2018-08-06T05:37:57.774Z,2.20
2018-08-06T05:40:25.434Z,2.43
2018-08-06T05:42:53.462Z,2.37
2018-08-06T05:45:21.234Z,2.57
2018-08-06T05:47:49.190Z,2.20
2018-08-06T05:50:16.934Z,2.07
2018-08-06T05:52:45.160Z,1.83
2018-08-06T05:55:12.924Z,2.00
2018-08-06T05:57:41.475Z,2.50
2018-08-06T06:00:14.740Z,2.03
2018-08-06T06:02:43.564Z,2.13
2018-08-06T06:05:11.508Z,2.17
2018-08-06T06:07:39.524Z,2.60
2018-08-06T06:10:08.920Z,2.43
2018-08-06T06:12:38.043Z,2.63
2018-08-06T06:15:10.054Z,2.37
2018-08-06T06:17:38.129Z,2.43
2018-08-06T06:20:06.327Z,2.40
2018-08-06T06:22:34.128Z,2.37
2018-08-06T06:25:02.113Z,2.33
2018-08-06T06:27:29.746Z,2.43
2018-08-06T06:29:57.894Z,2.10
2018-08-06T06:32:25.763Z,2.70
2018-08-06T06:34:53.618Z,3.10
2018-08-06T06:37:21.271Z,2.43
2018-08-06T06:39:48.977Z,2.80
2018-08-06T06:42:16.629Z,2.80
2018-08-06T06:44:44.308Z,2.30
2018-08-06T06:47:11.973Z,2.27
2018-08-06T06:49:39.707Z,2.10
2018-08-06T06:52:07.569Z,2.10
2018-08-06T06:54:35.199Z,2.17
2018-08-06T06:57:02.885Z,2.13
2018-08-06T06:59:30.829Z,2.77
2018-08-06T07:01:58.546Z,1.90
2018-08-06T07:04:26.487Z,2.20
2018-08-06T07:06:54.235Z,2.33
2018-08-06T07:09:22.066Z,2.13
2018-08-06T07:11:49.874Z,1.73
2018-08-06T07:14:17.803Z,2.50
2018-08-06T07:16:45.571Z,1.63
2018-08-06T07:19:13.201Z,1.80
2018-08-06T07:21:40.879Z,1.47
2018-08-06T07:24:08.769Z,1.53
2018-08-06T07:26:36.530Z,1.33
2018-08-06T07:29:04.501Z,2.20
2018-08-06T07:34:06.935Z,1.30
2018-08-06T07:36:34.723Z,1.77
2018-08-06T07:39:02.475Z,1.77
2018-08-06T07:41:30.161Z,1.53
2018-08-06T07:43:57.919Z,1.30
2018-08-06T07:46:25.537Z,1.70
2018-08-06T07:48:53.206Z,1.70
2018-08-06T07:51:20.867Z,1.60
2018-08-06T07:53:48.514Z,1.80
2018-08-06T07:56:16.184Z,1.43
2018-08-06T07:58:43.886Z,1.73
2018-08-06T08:01:11.587Z,1.73
2018-08-06T08:03:39.278Z,1.27
2018-08-06T08:06:06.909Z,1.60
2018-08-06T08:08:34.573Z,1.40
2018-08-06T08:11:02.250Z,1.53
2018-08-06T08:13:29.959Z,1.43
2018-08-06T08:15:57.645Z,1.33
2018-08-06T08:18:25.289Z,1.30
2018-08-06T08:20:52.963Z,1.40
2018-08-06T08:23:20.601Z,1.27
2018-08-06T08:25:48.335Z,1.30
2018-08-06T08:28:16.043Z,1.30
2018-08-06T08:30:43.747Z,1.60
2018-08-06T08:33:11.409Z,1.23
2018-08-06T08:35:39.105Z,1.60
2018-08-06T08:38:06.823Z,1.30
2018-08-06T08:40:34.520Z,1.70
2018-08-06T08:43:02.181Z,1.30
2018-08-06T08:45:29.911Z,1.17
2018-08-06T08:47:57.572Z,1.40
2018-08-06T08:50:25.257Z,1.20
2018-08-06T08:52:53.004Z,1.90
2018-08-06T08:55:20.691Z,1.10
2018-08-06T08:57:48.223Z,1.67
2018-08-06T09:00:18.579Z,1.67
2018-08-06T09:02:47.352Z,1.60
2018-08-06T09:05:15.728Z,1.13
2018-08-06T09:07:43.487Z,1.50
2018-08-06T09:10:12.193Z,1.30
2018-08-06T09:12:40.367Z,1.37
2018-08-06T09:15:16.356Z,1.40
2018-08-06T09:17:44.532Z,1.33
2018-08-06T09:20:12.278Z,1.50
2018-08-06T09:22:40.844Z,1.62
2018-08-06T09:25:09.398Z,1.72
2018-08-06T09:27:37.892Z,1.10
2018-08-06T09:30:08.831Z,1.80
2018-08-06T09:32:36.537Z,1.50
2018-08-06T09:35:04.335Z,1.65
2018-08-06T09:37:32.010Z,1.50
2018-08-06T09:39:59.693Z,2.30
2018-08-06T09:42:27.597Z,1.50
2018-08-06T09:44:55.240Z,1.52
2018-08-06T09:47:22.948Z,1.60
2018-08-06T09:49:50.565Z,1.37
2018-08-06T09:52:18.838Z,1.67
2018-08-06T09:54:46.507Z,1.60
2018-08-06T09:57:14.253Z,2.10
2018-08-06T09:59:41.964Z,1.90
2018-08-06T10:02:09.634Z,1.87
2018-08-06T10:04:37.370Z,1.77
2018-08-06T10:07:05.095Z,1.77
2018-08-06T10:09:32.802Z,1.80
2018-08-06T10:12:00.552Z,1.70
2018-08-06T10:14:28.300Z,1.90
2018-08-06T10:16:57.009Z,1.77
2018-08-06T10:19:24.886Z,2.12
2018-08-06T10:21:52.531Z,1.90
2018-08-06T10:24:20.132Z,1.85
2018-08-06T10:26:47.836Z,1.70
2018-08-06T10:29:15.537Z,1.75
2018-08-06T10:31:43.308Z,2.00
2018-08-06T10:34:11.112Z,2.22
2018-08-06T10:36:38.815Z,1.80
2018-08-06T10:39:08.971Z,2.20
2018-08-06T10:41:36.770Z,1.85
2018-08-06T10:44:04.515Z,2.00
2018-08-06T10:46:32.454Z,1.85
2018-08-06T10:49:00.127Z,2.17
2018-08-06T10:51:27.853Z,2.02
2018-08-06T10:53:55.549Z,2.10
2018-08-06T10:56:29.877Z,2.45
2018-08-06T10:58:57.601Z,2.20
2018-08-06T11:01:25.305Z,2.17
2018-08-06T11:03:53.072Z,2.05
2018-08-06T11:06:20.799Z,2.30
2018-08-06T11:08:48.566Z,1.95
2018-08-06T11:11:16.219Z,2.12
2018-08-06T11:13:43.809Z,2.37
2018-08-06T11:16:11.612Z,2.45
2018-08-06T11:18:39.340Z,2.10
2018-08-06T11:21:07.165Z,1.87
2018-08-06T11:23:34.959Z,2.05
2018-08-06T11:26:02.730Z,2.40
2018-08-06T11:28:30.420Z,2.30
2018-08-06T11:30:58.181Z,2.12
2018-08-06T11:33:25.868Z,2.02
2018-08-06T11:35:53.441Z,2.20
2018-08-06T11:38:21.229Z,2.50
2018-08-06T11:40:48.917Z,2.55
2018-08-06T11:43:16.648Z,2.17
2018-08-06T11:45:44.344Z,1.90
2018-08-06T11:48:12.061Z,1.85
2018-08-06T11:50:39.847Z,2.45
2018-08-06T11:53:07.530Z,2.37
2018-08-06T11:55:35.236Z,2.30
2018-08-06T11:58:02.858Z,2.15
2018-08-06T12:00:30.652Z,2.20
2018-08-06T12:02:58.422Z,2.27
2018-08-06T12:05:26.116Z,2.22
2018-08-06T12:07:53.767Z,2.42
2018-08-06T12:10:21.553Z,2.50
2018-08-06T12:12:49.752Z,2.45
2018-08-06T12:15:17.527Z,2.70
2018-08-06T12:17:45.282Z,2.35
2018-08-06T12:20:15.029Z,2.60
2018-08-06T12:22:43.985Z,2.50
2018-08-06T12:25:12.597Z,2.50
2018-08-06T12:27:40.355Z,2.67
2018-08-06T12:30:14.141Z,2.30
2018-08-06T12:32:42.602Z,2.70
2018-08-06T12:35:10.316Z,2.52
2018-08-06T12:37:38.232Z,2.40
2018-08-06T12:40:09.685Z,2.20
2018-08-06T12:42:37.506Z,2.80
2018-08-06T12:45:06.256Z,2.33
2018-08-06T12:47:33.928Z,2.25
2018-08-06T12:50:01.618Z,2.12
2018-08-06T12:52:29.286Z,2.45
2018-08-06T12:54:57.019Z,2.65
2018-08-06T12:57:24.717Z,2.47
2018-08-06T12:59:52.392Z,2.70
2018-08-06T13:02:20.140Z,2.70
2018-08-06T13:04:47.806Z,2.55
2018-08-06T13:07:15.540Z,1.98
2018-08-06T13:09:43.214Z,2.65
2018-08-06T13:12:11.045Z,2.95
2018-08-06T13:14:38.906Z,2.22
2018-08-06T13:17:06.583Z,2.55
2018-08-06T13:19:34.294Z,2.70
2018-08-06T13:22:02.010Z,2.80
2018-08-06T13:24:29.725Z,2.25
2018-08-06T13:26:57.584Z,2.45
2018-08-06T13:29:25.435Z,2.60
2018-08-06T13:31:53.119Z,2.65
2018-08-06T13:34:20.882Z,2.62
2018-08-06T13:36:48.719Z,2.42
2018-08-06T13:39:16.445Z,2.60
2018-08-06T13:41:44.133Z,2.75
2018-08-06T13:44:11.856Z,2.47
2018-08-06T13:46:39.589Z,2.50
2018-08-06T13:49:11.362Z,2.60
2018-08-06T13:51:39.069Z,2.55
2018-08-06T13:54:06.780Z,2.72
2018-08-06T13:56:34.564Z,2.67
2018-08-06T13:59:07.923Z,2.33
2018-08-06T14:01:35.606Z,2.60
2018-08-06T14:04:03.612Z,2.60
2018-08-06T14:06:31.330Z,2.77
2018-08-06T14:08:59.023Z,2.80
2018-08-06T14:11:26.733Z,2.70
2018-08-06T14:13:54.399Z,2.92
2018-08-06T14:16:22.091Z,2.70
2018-08-06T14:18:49.802Z,2.70
2018-08-06T14:21:17.503Z,2.72
2018-08-06T14:23:45.194Z,2.58
2018-08-06T14:26:12.955Z,2.52
2018-08-06T14:28:40.673Z,2.77
2018-08-06T14:31:08.397Z,3.10
2018-08-06T14:33:36.063Z,2.40
2018-08-06T14:36:03.733Z,2.72
2018-08-06T14:38:31.431Z,2.35
2018-08-06T14:40:59.176Z,2.62
2018-08-06T14:43:26.904Z,2.75
2018-08-06T14:45:54.599Z,2.60
2018-08-06T14:48:22.329Z,2.95
2018-08-06T14:50:50.031Z,2.60
2018-08-06T14:53:17.744Z,2.58
2018-08-06T14:55:45.422Z,2.60
2018-08-06T14:58:13.877Z,2.62
2018-08-06T15:00:41.707Z,2.65
2018-08-06T15:03:09.411Z,2.80
2018-08-06T15:05:37.143Z,2.80
2018-08-06T15:08:04.946Z,2.70
2018-08-06T15:10:32.703Z,2.90
2018-08-06T15:13:00.512Z,2.87
2018-08-06T15:15:28.216Z,2.80
2018-08-06T15:17:56.060Z,2.62
2018-08-06T15:20:23.802Z,2.72
2018-08-06T15:22:51.471Z,2.95
2018-08-06T15:25:20.837Z,3.15
2018-08-06T15:27:48.615Z,2.90
2018-08-06T15:30:16.253Z,2.62
2018-08-06T15:32:44.018Z,3.05
2018-08-06T15:35:12.391Z,2.85
2018-08-06T15:37:41.209Z,2.60
2018-08-06T15:40:13.241Z,2.62
2018-08-06T15:42:41.346Z,2.67
2018-08-06T15:45:09.912Z,3.05
2018-08-06T15:47:37.586Z,3.25
2018-08-06T15:50:06.883Z,2.35
2018-08-06T15:52:34.588Z,3.02
2018-08-06T15:55:02.304Z,2.72
2018-08-06T15:57:30.016Z,2.72
2018-08-06T15:59:57.716Z,2.75
2018-08-06T16:02:25.401Z,2.83
2018-08-06T16:04:53.095Z,3.08
2018-08-06T16:07:20.766Z,2.95
2018-08-06T16:09:48.461Z,2.90
2018-08-06T16:12:16.133Z,2.85
2018-08-06T16:14:43.777Z,2.47
2018-08-06T16:17:11.649Z,2.75
2018-08-06T16:19:39.395Z,2.80
2018-08-06T16:22:07.245Z,2.58
2018-08-06T16:24:34.925Z,2.67
2018-08-06T16:27:02.834Z,2.80
2018-08-06T16:29:30.506Z,2.85
2018-08-06T16:31:58.204Z,2.50
2018-08-06T16:34:25.948Z,2.47
2018-08-06T16:36:53.638Z,2.37
2018-08-06T16:39:21.295Z,2.20
2018-08-06T16:41:49.022Z,2.60
2018-08-06T16:44:16.693Z,2.27
2018-08-06T16:46:44.499Z,2.15
2018-08-06T16:49:12.239Z,2.20
2018-08-06T16:51:40.000Z,2.62
2018-08-06T16:54:08.928Z,2.75
2018-08-06T16:56:36.728Z,2.35
2018-08-06T16:59:04.514Z,2.45
2018-08-06T17:01:32.226Z,2.52
2018-08-06T17:04:00.069Z,2.50
2018-08-06T17:06:28.180Z,2.47
2018-08-06T17:08:56.049Z,2.27
2018-08-06T17:11:24.038Z,2.47
2018-08-06T17:13:51.863Z,2.47
2018-08-06T17:16:20.082Z,2.58
2018-08-06T17:18:48.211Z,2.72
2018-08-06T17:21:16.210Z,2.72
2018-08-06T17:23:43.812Z,2.40
2018-08-06T17:26:11.557Z,2.60
2018-08-06T17:28:39.241Z,2.30
2018-08-06T17:31:07.521Z,2.37
2018-08-06T17:33:36.066Z,2.00
2018-08-06T17:36:03.795Z,2.10
2018-08-06T17:38:32.056Z,2.15
2018-08-06T17:40:59.781Z,2.22
2018-08-06T17:43:27.551Z,1.90
2018-08-06T17:45:55.216Z,2.25
2018-08-06T17:48:23.393Z,2.27
2018-08-06T17:50:51.290Z,2.40
2018-08-06T17:53:19.766Z,2.60
2018-08-06T17:55:48.809Z,2.33
2018-08-06T17:58:16.631Z,2.20
2018-08-06T18:00:44.645Z,2.12
2018-08-06T18:03:12.424Z,2.00
2018-08-06T18:05:41.073Z,2.22
2018-08-06T18:08:10.431Z,2.55
2018-08-06T18:10:38.402Z,2.25
2018-08-06T18:13:06.104Z,2.47
2018-08-06T18:15:33.881Z,2.55
2018-08-06T18:18:01.612Z,1.92
2018-08-06T18:20:29.321Z,2.20
2018-08-06T18:22:57.016Z,1.87
2018-08-06T18:25:24.919Z,2.42
2018-08-06T18:27:52.653Z,2.17
2018-08-06T18:30:21.756Z,2.30
2018-08-06T18:32:49.648Z,2.55
2018-08-06T18:35:18.265Z,2.40
2018-08-06T18:37:46.083Z,2.42
2018-08-06T18:40:14.369Z,2.20
2018-08-06T18:42:42.278Z,2.50
2018-08-06T18:45:13.234Z,2.35
2018-08-06T18:47:42.907Z,2.65
2018-08-06T18:50:12.360Z,2.50
2018-08-06T18:52:40.418Z,2.22
2018-08-06T18:55:09.857Z,2.67
2018-08-06T18:57:37.696Z,2.55
2018-08-06T19:00:07.449Z,2.72
2018-08-06T19:02:35.179Z,2.85
2018-08-06T19:05:02.927Z,2.60
2018-08-06T19:07:30.741Z,2.02
2018-08-06T19:09:58.554Z,2.42
2018-08-06T19:12:31.794Z,2.37
2018-08-06T19:14:59.614Z,2.30
2018-08-06T19:17:27.345Z,2.65
2018-08-06T19:19:55.243Z,2.27
2018-08-06T19:22:22.751Z,2.35
2018-08-06T19:24:55.995Z,2.50
2018-08-06T19:27:23.663Z,2.60
2018-08-06T19:29:51.366Z,3.47
2018-08-06T19:32:19.070Z,3.05
2018-08-06T19:34:46.927Z,3.50
2018-08-06T19:37:20.260Z,3.65
2018-08-06T19:39:47.943Z,3.52
2018-08-06T19:42:15.630Z,3.33
2018-08-06T19:44:43.444Z,3.00
2018-08-06T19:47:11.203Z,3.05
2018-08-06T19:49:44.759Z,2.80
2018-08-06T19:52:13.119Z,2.70
2018-08-06T19:54:41.625Z,3.55
2018-08-06T19:57:10.031Z,2.52
2018-08-06T19:59:38.049Z,2.60
2018-08-06T20:02:05.874Z,2.72
2018-08-06T20:04:33.766Z,2.37
2018-08-06T20:07:02.094Z,2.50
2018-08-06T20:09:30.011Z,2.42
2018-08-06T20:11:58.188Z,2.15
2018-08-06T20:14:27.479Z,2.43
2018-08-06T20:16:55.738Z,2.25
2018-08-06T20:19:23.852Z,2.10
2018-08-06T20:21:51.663Z,2.05
2018-08-06T20:24:19.596Z,2.75
2018-08-06T20:26:48.065Z,2.33
2018-08-06T20:29:16.239Z,2.85
2018-08-06T20:31:44.258Z,2.30
2018-08-06T20:34:12.142Z,2.17
2018-08-06T20:36:39.864Z,2.33
2018-08-06T20:39:08.595Z,1.90
2018-08-06T20:41:36.913Z,1.90
2018-08-06T20:44:04.735Z,2.80
2018-08-06T20:46:32.398Z,2.20
2018-08-06T20:49:00.367Z,2.47
2018-08-06T20:51:28.071Z,2.33
2018-08-06T20:53:55.965Z,2.20
2018-08-06T20:56:23.668Z,2.43
2018-08-06T20:58:51.457Z,2.67
2018-08-06T21:01:19.226Z,2.07
2018-08-06T21:03:46.945Z,2.50
2018-08-06T21:06:14.731Z,2.40
2018-08-06T21:08:42.510Z,2.40
2018-08-06T21:11:10.266Z,2.70
2018-08-06T21:13:38.071Z,2.87
2018-08-06T21:16:06.095Z,2.90
2018-08-06T21:18:34.028Z,3.10
2018-08-06T21:21:01.709Z,2.97
2018-08-06T21:23:29.437Z,2.57
2018-08-06T21:25:57.118Z,2.20
2018-08-06T21:28:24.793Z,2.33
2018-08-06T21:30:52.535Z,2.03
2018-08-06T21:33:20.195Z,2.43
2018-08-06T21:35:47.852Z,2.40
2018-08-06T21:38:15.551Z,2.47
2018-08-06T21:40:43.245Z,2.40
2018-08-06T21:43:10.950Z,2.30
2018-08-06T21:45:38.766Z,2.40
2018-08-06T21:48:06.479Z,2.40
2018-08-06T21:50:34.373Z,2.30
2018-08-06T21:53:02.079Z,2.47
2018-08-06T21:55:30.890Z,2.33
2018-08-06T21:57:59.016Z,2.20
2018-08-06T22:00:33.149Z,2.20
2018-08-06T22:03:01.738Z,2.80
2018-08-06T22:05:29.481Z,2.00
2018-08-06T22:07:57.282Z,2.53
2018-08-06T22:10:24.946Z,2.77
2018-08-06T22:12:52.593Z,2.73
2018-08-06T22:15:20.343Z,2.60
2018-08-06T22:17:47.974Z,2.70
2018-08-06T22:20:15.608Z,2.63
2018-08-06T22:22:43.333Z,2.23
2018-08-06T22:25:11.174Z,2.77
2018-08-06T22:27:39.816Z,2.60
2018-08-06T22:30:08.314Z,2.53
2018-08-06T22:32:35.966Z,2.53
2018-08-06T22:35:05.382Z,2.63
2018-08-06T22:37:33.015Z,2.67
2018-08-06T22:40:00.686Z,2.00
2018-08-06T22:42:28.388Z,2.63
2018-08-06T22:44:56.025Z,2.37
2018-08-06T22:47:23.672Z,2.83
2018-08-06T22:49:51.368Z,2.43
2018-08-06T22:52:19.088Z,2.33
2018-08-06T22:54:46.722Z,2.57
2018-08-06T22:57:14.362Z,2.60
2018-08-06T22:59:42.055Z,1.90
2018-08-06T23:02:09.753Z,2.40
2018-08-06T23:04:37.479Z,2.67
2018-08-06T23:07:05.141Z,2.37
2018-08-06T23:09:32.781Z,2.37
2018-08-06T23:12:00.697Z,2.70
2018-08-06T23:14:28.332Z,2.70
2018-08-06T23:16:56.005Z,2.30
2018-08-06T23:19:23.747Z,2.87
2018-08-06T23:21:51.423Z,2.63
2018-08-06T23:24:19.045Z,2.63
2018-08-06T23:26:46.704Z,2.70
2018-08-06T23:29:14.341Z,2.47
2018-08-06T23:31:41.967Z,2.07
2018-08-06T23:34:09.603Z,2.40
2018-08-06T23:36:37.208Z,2.50
2018-08-06T23:39:07.612Z,2.37
2018-08-06T23:41:35.297Z,2.30
2018-08-06T23:44:03.241Z,2.90
2018-08-06T23:46:30.922Z,2.57
2018-08-06T23:48:58.605Z,2.60
2018-08-06T23:51:26.252Z,2.73
2018-08-06T23:53:53.875Z,2.67
2018-08-06T23:56:21.566Z,2.60
2018-08-06T23:58:49.201Z,2.70
